Huvudsida
METAR-TAF:

METAR-TAF

Flygplatser :

Tahiti, Franska Polynesien

latitud: 17-33S, longitud: 149-37W, höjd: 2 m

Aktuellt väderrapport

Denna rapport gjordes för 7 minuter sedan, klockan 00:00 UTC
Vind 2 kt varierande vindriktning
Temperatur 30°C
Fuktighet 70%
Tryck 1011 hPa
Sikt 10 km eller mer
Spridda moln på en höjd av 2500 ft
Spridda moln på en höjd av 28000 ft

METAR: NTAA 250000Z VRB02KT 9999 SCT025 SCT280 30/24 Q1011 WS ALL RWY NOSIG

Tid: 14:07 (00:07 UTC)

Väderprognos

Denna rapport gjordes för 7 timmar och 7 minuter sedan, klockan 17:00 UTC
Prognos gäller från 24 kl. 18 UTC till 25 kl. 24 UTC
Vind 5 kt varierande vindriktning
Sikt 10 km eller mer
Få moln på en höjd av 2300 ft, Högtornande cumulus.
Spridda moln på en höjd av 5000 ft
Temporärt
från 24 kl. 18 UTC till 25 kl. 04 UTC
Vind 16 kt från ost/nordost

TAF: NTAA 241700Z 2418/2524 VRB05KT 9999 FEW023TCU SCT050 TEMPO 2418/2504 06016KT

Aktuella väderrapporter och prognoser från 4000 flygplatser (METAR- och TAF-rapporter).

De tillgängliga stationerna syns som gula och röda prickar på kartan.

För musen över prickarna för att se namnen på stationerna.

Klicka sedan för att få väderrapporter och prognoser.

För att ändra kartan: Klicka på de gröna knapparna med ett svart kors på för att zooma in; den gröna knappen med ett streck på för att zooma ut; eller på de gröna pilarna för angränsande kartor.


METAR-TAF: